Weather at Potgietersrus Airport [CLOSED]

Public forecast

Using degrees Celsius for public forecast. Weather courtesy of forecast.io.

Closest aviation weather report (METAR) to Potgietersrus Airport

Closest report is Polokwane International Airport, 35.0 nm (64.7 km) NE. Retrieved 2021/10/20 00:00 UTC (12 minutes ago):

FAPP 200000Z AUTO 05004KT //// // ////// 09/06 Q1026

Closest aviation forecast (TAF) to Potgietersrus Airport

Forecast is more than 12 hours old.

Closest forecast is Polokwane International Airport, 35.0 nm (64.7 km) NE. Retrieved 2021/05/05 07:00 UTC (6 months ago):

TAF FAPP 050600Z 0507/0518 19006KT CAVOK TX24/0512Z TN15/0518Z